sensor_id;sensor_type;location;lat;lon;timestamp;P1;durP1;ratioP1;P2;durP2;ratioP2
68577;SDS011;61668;45.388;11.784;2023-02-15T00:01:46;98.40;;;52.20;;
68577;SDS011;61668;45.388;11.784;2023-02-15T00:04:14;101.70;;;52.60;;
68577;SDS011;61668;45.388;11.784;2023-02-15T00:06:40;90.10;;;49.80;;
68577;SDS011;61668;45.388;11.784;2023-02-15T00:09:07;99.70;;;49.80;;
68577;SDS011;61668;45.388;11.784;2023-02-15T00:11:34;94.70;;;51.70;;
68577;SDS011;61668;45.388;11.784;2023-02-15T00:16:39;99.00;;;50.10;;
68577;SDS011;61668;45.388;11.784;2023-02-15T00:19:06;103.30;;;51.90;;
68577;SDS011;61668;45.388;11.784;2023-02-15T00:21:34;99.70;;;51.00;;
68577;SDS011;61668;45.388;11.784;2023-02-15T00:24:02;90.90;;;49.60;;
68577;SDS011;61668;45.388;11.784;2023-02-15T00:26:29;92.00;;;47.20;;
68577;SDS011;61668;45.388;11.784;2023-02-15T00:28:55;91.80;;;47.60;;
68577;SDS011;61668;45.388;11.784;2023-02-15T00:31:23;107.30;;;51.50;;
68577;SDS011;61668;45.388;11.784;2023-02-15T00:33:49;103.60;;;49.90;;
68577;SDS011;61668;45.388;11.784;2023-02-15T00:36:14;100.40;;;49.90;;
68577;SDS011;61668;45.388;11.784;2023-02-15T00:38:40;95.70;;;49.10;;
68577;SDS011;61668;45.388;11.784;2023-02-15T00:41:07;95.90;;;47.90;;
68577;SDS011;61668;45.388;11.784;2023-02-15T00:43:34;96.70;;;46.00;;
68577;SDS011;61668;45.388;11.784;2023-02-15T00:46:01;98.60;;;50.80;;
68577;SDS011;61668;45.388;11.784;2023-02-15T00:48:27;88.80;;;47.60;;
68577;SDS011;61668;45.388;11.784;2023-02-15T00:50:56;91.40;;;45.50;;
68577;SDS011;61668;45.388;11.784;2023-02-15T00:53:23;96.30;;;51.50;;
68577;SDS011;61668;45.388;11.784;2023-02-15T00:55:50;96.10;;;48.40;;
68577;SDS011;61668;45.388;11.784;2023-02-15T00:58:15;98.70;;;47.40;;
68577;SDS011;61668;45.388;11.784;2023-02-15T01:00:43;92.60;;;46.60;;
68577;SDS011;61668;45.388;11.784;2023-02-15T01:03:10;101.00;;;48.80;;
68577;SDS011;61668;45.388;11.784;2023-02-15T01:05:36;93.30;;;45.60;;
68577;SDS011;61668;45.388;11.784;2023-02-15T01:08:02;95.80;;;48.80;;
68577;SDS011;61668;45.388;11.784;2023-02-15T01:10:28;103.10;;;51.10;;
68577;SDS011;61668;45.388;11.784;2023-02-15T01:12:55;95.80;;;47.50;;
68577;SDS011;61668;45.388;11.784;2023-02-15T01:15:21;98.90;;;46.20;;
68577;SDS011;61668;45.388;11.784;2023-02-15T01:17:47;94.50;;;46.70;;
68577;SDS011;61668;45.388;11.784;2023-02-15T01:20:22;92.00;;;46.90;;
68577;SDS011;61668;45.388;11.784;2023-02-15T01:22:50;80.30;;;43.60;;
68577;SDS011;61668;45.388;11.784;2023-02-15T01:25:17;94.70;;;44.10;;
68577;SDS011;61668;45.388;11.784;2023-02-15T01:27:43;87.90;;;44.60;;
68577;SDS011;61668;45.388;11.784;2023-02-15T01:30:10;92.60;;;48.00;;
68577;SDS011;61668;45.388;11.784;2023-02-15T01:32:36;93.30;;;48.30;;
68577;SDS011;61668;45.388;11.784;2023-02-15T01:35:02;94.40;;;46.70;;
68577;SDS011;61668;45.388;11.784;2023-02-15T01:37:30;88.90;;;47.50;;
68577;SDS011;61668;45.388;11.784;2023-02-15T01:39:56;89.00;;;46.80;;
68577;SDS011;61668;45.388;11.784;2023-02-15T01:42:24;97.20;;;49.20;;
68577;SDS011;61668;45.388;11.784;2023-02-15T01:45:02;93.70;;;46.10;;
68577;SDS011;61668;45.388;11.784;2023-02-15T01:47:40;86.40;;;42.40;;
68577;SDS011;61668;45.388;11.784;2023-02-15T01:50:51;92.90;;;45.60;;
68577;SDS011;61668;45.388;11.784;2023-02-15T01:56:06;87.60;;;42.70;;
68577;SDS011;61668;45.388;11.784;2023-02-15T01:58:36;81.40;;;40.60;;
68577;SDS011;61668;45.388;11.784;2023-02-15T02:01:04;85.80;;;43.60;;
68577;SDS011;61668;45.388;11.784;2023-02-15T02:06:30;82.20;;;41.90;;
68577;SDS011;61668;45.388;11.784;2023-02-15T02:08:57;83.00;;;41.10;;
68577;SDS011;61668;45.388;11.784;2023-02-15T02:11:24;80.60;;;42.60;;
68577;SDS011;61668;45.388;11.784;2023-02-15T02:13:51;87.60;;;41.00;;
68577;SDS011;61668;45.388;11.784;2023-02-15T02:25:10;82.80;;;40.10;;
68577;SDS011;61668;45.388;11.784;2023-02-15T02:34:13;79.60;;;38.40;;
68577;SDS011;61668;45.388;11.784;2023-02-15T02:37:02;87.70;;;41.50;;
68577;SDS011;61668;45.388;11.784;2023-02-15T02:45:09;74.90;;;38.40;;
68577;SDS011;61668;45.388;11.784;2023-02-15T02:48:19;77.20;;;41.00;;
68577;SDS011;61668;45.388;11.784;2023-02-15T02:50:41;77.30;;;39.00;;
68577;SDS011;61668;45.388;11.784;2023-02-15T02:53:09;83.90;;;39.70;;
68577;SDS011;61668;45.388;11.784;2023-02-15T02:58:49;80.20;;;37.60;;
68577;SDS011;61668;45.388;11.784;2023-02-15T03:01:34;81.30;;;39.80;;
68577;SDS011;61668;45.388;11.784;2023-02-15T03:04:11;84.70;;;40.00;;
68577;SDS011;61668;45.388;11.784;2023-02-15T03:07:02;78.30;;;40.80;;
68577;SDS011;61668;45.388;11.784;2023-02-15T03:09:39;82.00;;;37.20;;
68577;SDS011;61668;45.388;11.784;2023-02-15T03:12:10;90.30;;;38.40;;
68577;SDS011;61668;45.388;11.784;2023-02-15T03:14:40;81.00;;;38.60;;
68577;SDS011;61668;45.388;11.784;2023-02-15T03:17:07;84.30;;;39.90;;
68577;SDS011;61668;45.388;11.784;2023-02-15T03:19:36;78.60;;;38.90;;
68577;SDS011;61668;45.388;11.784;2023-02-15T03:22:33;83.10;;;37.10;;
68577;SDS011;61668;45.388;11.784;2023-02-15T03:27:41;77.70;;;38.00;;
68577;SDS011;61668;45.388;11.784;2023-02-15T03:30:11;79.60;;;38.90;;
68577;SDS011;61668;45.388;11.784;2023-02-15T03:32:39;77.20;;;37.20;;
68577;SDS011;61668;45.388;11.784;2023-02-15T03:35:06;77.50;;;38.50;;
68577;SDS011;61668;45.388;11.784;2023-02-15T03:37:47;76.20;;;38.00;;
68577;SDS011;61668;45.388;11.784;2023-02-15T03:40:30;75.90;;;38.90;;
68577;SDS011;61668;45.388;11.784;2023-02-15T03:43:30;70.50;;;34.90;;
68577;SDS011;61668;45.388;11.784;2023-02-15T03:46:37;75.30;;;35.50;;
68577;SDS011;61668;45.388;11.784;2023-02-15T03:49:17;69.60;;;35.40;;
68577;SDS011;61668;45.388;11.784;2023-02-15T03:51:48;80.60;;;37.10;;
68577;SDS011;61668;45.388;11.784;2023-02-15T03:54:20;81.30;;;38.10;;
68577;SDS011;61668;45.388;11.784;2023-02-15T03:59:57;81.90;;;37.70;;
68577;SDS011;61668;45.388;11.784;2023-02-15T04:05:29;77.60;;;39.90;;
68577;SDS011;61668;45.388;11.784;2023-02-15T04:07:54;75.40;;;38.60;;
68577;SDS011;61668;45.388;11.784;2023-02-15T04:10:20;82.40;;;38.30;;
68577;SDS011;61668;45.388;11.784;2023-02-15T04:13:04;73.60;;;36.80;;
68577;SDS011;61668;45.388;11.784;2023-02-15T04:15:30;76.40;;;36.20;;
68577;SDS011;61668;45.388;11.784;2023-02-15T04:18:14;79.30;;;39.60;;
68577;SDS011;61668;45.388;11.784;2023-02-15T04:20:44;73.80;;;35.70;;
68577;SDS011;61668;45.388;11.784;2023-02-15T04:23:28;65.20;;;32.40;;
68577;SDS011;61668;45.388;11.784;2023-02-15T04:26:12;62.70;;;30.40;;
68577;SDS011;61668;45.388;11.784;2023-02-15T04:28:38;72.30;;;34.60;;
68577;SDS011;61668;45.388;11.784;2023-02-15T04:31:04;71.80;;;35.80;;
68577;SDS011;61668;45.388;11.784;2023-02-15T04:33:29;70.90;;;36.20;;
68577;SDS011;61668;45.388;11.784;2023-02-15T04:35:55;71.80;;;36.30;;
68577;SDS011;61668;45.388;11.784;2023-02-15T04:38:22;75.80;;;37.50;;
68577;SDS011;61668;45.388;11.784;2023-02-15T04:40:51;83.30;;;39.80;;
68577;SDS011;61668;45.388;11.784;2023-02-15T04:43:18;71.70;;;36.30;;
68577;SDS011;61668;45.388;11.784;2023-02-15T04:45:49;72.90;;;36.30;;
68577;SDS011;61668;45.388;11.784;2023-02-15T04:48:17;81.90;;;39.30;;
68577;SDS011;61668;45.388;11.784;2023-02-15T04:50:44;77.00;;;39.60;;
68577;SDS011;61668;45.388;11.784;2023-02-15T04:53:10;80.80;;;37.80;;
68577;SDS011;61668;45.388;11.784;2023-02-15T04:55:36;83.30;;;36.90;;
68577;SDS011;61668;45.388;11.784;2023-02-15T04:58:02;74.30;;;37.60;;
68577;SDS011;61668;45.388;11.784;2023-02-15T05:00:27;80.20;;;39.00;;
68577;SDS011;61668;45.388;11.784;2023-02-15T05:02:53;76.80;;;36.70;;
68577;SDS011;61668;45.388;11.784;2023-02-15T05:05:19;73.70;;;36.70;;
68577;SDS011;61668;45.388;11.784;2023-02-15T05:07:45;74.90;;;37.20;;
68577;SDS011;61668;45.388;11.784;2023-02-15T05:10:10;71.50;;;35.90;;
68577;SDS011;61668;45.388;11.784;2023-02-15T05:12:36;71.60;;;37.00;;
68577;SDS011;61668;45.388;11.784;2023-02-15T05:15:02;71.40;;;36.40;;
68577;SDS011;61668;45.388;11.784;2023-02-15T05:17:28;70.40;;;36.10;;
68577;SDS011;61668;45.388;11.784;2023-02-15T05:19:53;62.90;;;35.50;;
68577;SDS011;61668;45.388;11.784;2023-02-15T05:22:19;63.30;;;34.50;;
68577;SDS011;61668;45.388;11.784;2023-02-15T05:24:45;66.60;;;34.50;;
68577;SDS011;61668;45.388;11.784;2023-02-15T05:27:29;65.30;;;34.00;;
68577;SDS011;61668;45.388;11.784;2023-02-15T05:30:13;72.20;;;35.70;;
68577;SDS011;61668;45.388;11.784;2023-02-15T05:32:39;70.30;;;35.80;;
68577;SDS011;61668;45.388;11.784;2023-02-15T05:35:06;75.10;;;37.70;;
68577;SDS011;61668;45.388;11.784;2023-02-15T05:37:33;77.60;;;37.50;;
68577;SDS011;61668;45.388;11.784;2023-02-15T05:39:58;80.20;;;36.90;;
68577;SDS011;61668;45.388;11.784;2023-02-15T05:42:24;76.50;;;36.50;;
68577;SDS011;61668;45.388;11.784;2023-02-15T05:44:50;76.10;;;38.20;;
68577;SDS011;61668;45.388;11.784;2023-02-15T05:47:15;75.90;;;38.40;;
68577;SDS011;61668;45.388;11.784;2023-02-15T05:49:41;74.40;;;38.20;;
68577;SDS011;61668;45.388;11.784;2023-02-15T05:52:07;71.20;;;35.90;;
68577;SDS011;61668;45.388;11.784;2023-02-15T05:54:33;79.60;;;36.00;;
68577;SDS011;61668;45.388;11.784;2023-02-15T05:56:59;78.40;;;37.00;;
68577;SDS011;61668;45.388;11.784;2023-02-15T05:59:24;76.90;;;38.30;;
68577;SDS011;61668;45.388;11.784;2023-02-15T06:01:50;78.00;;;37.10;;
68577;SDS011;61668;45.388;11.784;2023-02-15T06:04:16;72.90;;;37.60;;
68577;SDS011;61668;45.388;11.784;2023-02-15T06:06:42;77.20;;;36.30;;
68577;SDS011;61668;45.388;11.784;2023-02-15T06:09:07;76.90;;;38.60;;
68577;SDS011;61668;45.388;11.784;2023-02-15T06:11:33;75.80;;;37.90;;
68577;SDS011;61668;45.388;11.784;2023-02-15T06:13:59;75.80;;;35.40;;
68577;SDS011;61668;45.388;11.784;2023-02-15T06:16:24;68.20;;;36.00;;
68577;SDS011;61668;45.388;11.784;2023-02-15T06:18:50;72.30;;;36.70;;
68577;SDS011;61668;45.388;11.784;2023-02-15T06:21:16;74.00;;;37.50;;
68577;SDS011;61668;45.388;11.784;2023-02-15T06:23:41;74.10;;;37.70;;
68577;SDS011;61668;45.388;11.784;2023-02-15T06:26:08;68.60;;;35.40;;
68577;SDS011;61668;45.388;11.784;2023-02-15T06:28:34;74.80;;;37.20;;
68577;SDS011;61668;45.388;11.784;2023-02-15T06:30:59;80.90;;;38.00;;
68577;SDS011;61668;45.388;11.784;2023-02-15T06:33:25;78.10;;;39.00;;
68577;SDS011;61668;45.388;11.784;2023-02-15T06:35:51;81.10;;;39.20;;
68577;SDS011;61668;45.388;11.784;2023-02-15T06:38:17;78.50;;;37.60;;
68577;SDS011;61668;45.388;11.784;2023-02-15T06:40:43;80.00;;;39.40;;
68577;SDS011;61668;45.388;11.784;2023-02-15T06:43:08;81.50;;;41.40;;
68577;SDS011;61668;45.388;11.784;2023-02-15T06:45:34;78.30;;;38.90;;
68577;SDS011;61668;45.388;11.784;2023-02-15T06:47:59;75.80;;;38.30;;
68577;SDS011;61668;45.388;11.784;2023-02-15T06:50:25;86.30;;;41.10;;
68577;SDS011;61668;45.388;11.784;2023-02-15T06:52:56;87.10;;;42.30;;
68577;SDS011;61668;45.388;11.784;2023-02-15T06:55:22;105.60;;;50.40;;
68577;SDS011;61668;45.388;11.784;2023-02-15T06:57:48;104.50;;;49.50;;
68577;SDS011;61668;45.388;11.784;2023-02-15T07:00:14;102.70;;;50.30;;
68577;SDS011;61668;45.388;11.784;2023-02-15T07:02:40;95.30;;;46.00;;
68577;SDS011;61668;45.388;11.784;2023-02-15T07:05:05;97.80;;;45.30;;
68577;SDS011;61668;45.388;11.784;2023-02-15T07:07:31;91.60;;;45.40;;
68577;SDS011;61668;45.388;11.784;2023-02-15T07:09:57;100.60;;;47.00;;
68577;SDS011;61668;45.388;11.784;2023-02-15T07:12:23;109.70;;;47.60;;
68577;SDS011;61668;45.388;11.784;2023-02-15T07:15:09;97.60;;;46.60;;
68577;SDS011;61668;45.388;11.784;2023-02-15T07:17:39;94.30;;;44.70;;
68577;SDS011;61668;45.388;11.784;2023-02-15T07:20:10;92.40;;;44.50;;
68577;SDS011;61668;45.388;11.784;2023-02-15T07:22:40;79.60;;;43.30;;
68577;SDS011;61668;45.388;11.784;2023-02-15T07:25:08;90.90;;;48.40;;
68577;SDS011;61668;45.388;11.784;2023-02-15T07:27:35;89.00;;;49.70;;
68577;SDS011;61668;45.388;11.784;2023-02-15T07:30:01;95.50;;;46.20;;
68577;SDS011;61668;45.388;11.784;2023-02-15T07:32:29;92.10;;;45.50;;
68577;SDS011;61668;45.388;11.784;2023-02-15T07:34:56;84.40;;;46.40;;
68577;SDS011;61668;45.388;11.784;2023-02-15T07:37:22;80.50;;;46.20;;
68577;SDS011;61668;45.388;11.784;2023-02-15T07:39:48;75.70;;;45.30;;
68577;SDS011;61668;45.388;11.784;2023-02-15T07:42:14;76.40;;;42.80;;
68577;SDS011;61668;45.388;11.784;2023-02-15T07:44:39;76.40;;;41.90;;
68577;SDS011;61668;45.388;11.784;2023-02-15T07:47:05;70.90;;;41.50;;
68577;SDS011;61668;45.388;11.784;2023-02-15T07:49:31;74.60;;;42.20;;
68577;SDS011;61668;45.388;11.784;2023-02-15T07:51:57;73.40;;;43.80;;
68577;SDS011;61668;45.388;11.784;2023-02-15T07:54:22;75.80;;;41.30;;
68577;SDS011;61668;45.388;11.784;2023-02-15T07:56:48;72.20;;;41.00;;
68577;SDS011;61668;45.388;11.784;2023-02-15T07:59:14;76.60;;;42.70;;
68577;SDS011;61668;45.388;11.784;2023-02-15T08:01:39;71.40;;;40.50;;
68577;SDS011;61668;45.388;11.784;2023-02-15T08:04:06;76.40;;;42.10;;
68577;SDS011;61668;45.388;11.784;2023-02-15T08:06:35;75.90;;;42.60;;
68577;SDS011;61668;45.388;11.784;2023-02-15T08:09:07;72.70;;;40.50;;
68577;SDS011;61668;45.388;11.784;2023-02-15T08:11:35;76.30;;;41.70;;
68577;SDS011;61668;45.388;11.784;2023-02-15T08:14:05;72.40;;;42.70;;
68577;SDS011;61668;45.388;11.784;2023-02-15T08:16:52;70.90;;;43.30;;
68577;SDS011;61668;45.388;11.784;2023-02-15T08:19:26;73.20;;;43.70;;
68577;SDS011;61668;45.388;11.784;2023-02-15T08:24:26;76.10;;;44.20;;
68577;SDS011;61668;45.388;11.784;2023-02-15T08:26:53;77.60;;;45.10;;
68577;SDS011;61668;45.388;11.784;2023-02-15T08:29:21;72.90;;;42.90;;
68577;SDS011;61668;45.388;11.784;2023-02-15T08:31:52;74.10;;;44.20;;
68577;SDS011;61668;45.388;11.784;2023-02-15T08:34:20;69.00;;;44.60;;
68577;SDS011;61668;45.388;11.784;2023-02-15T08:36:46;72.70;;;45.30;;
68577;SDS011;61668;45.388;11.784;2023-02-15T08:39:13;72.30;;;44.10;;
68577;SDS011;61668;45.388;11.784;2023-02-15T08:41:43;74.10;;;45.10;;
68577;SDS011;61668;45.388;11.784;2023-02-15T08:44:10;77.60;;;45.90;;
68577;SDS011;61668;45.388;11.784;2023-02-15T08:46:38;71.60;;;46.80;;
68577;SDS011;61668;45.388;11.784;2023-02-15T08:49:07;75.30;;;46.60;;
68577;SDS011;61668;45.388;11.784;2023-02-15T08:51:35;72.10;;;47.00;;
68577;SDS011;61668;45.388;11.784;2023-02-15T08:54:07;73.50;;;47.00;;
68577;SDS011;61668;45.388;11.784;2023-02-15T08:56:37;80.40;;;50.00;;
68577;SDS011;61668;45.388;11.784;2023-02-15T08:59:04;72.80;;;47.10;;
68577;SDS011;61668;45.388;11.784;2023-02-15T09:01:32;78.20;;;51.30;;
68577;SDS011;61668;45.388;11.784;2023-02-15T09:04:01;82.20;;;53.70;;
68577;SDS011;61668;45.388;11.784;2023-02-15T09:06:29;78.70;;;51.70;;
68577;SDS011;61668;45.388;11.784;2023-02-15T09:08:56;77.90;;;49.90;;
68577;SDS011;61668;45.388;11.784;2023-02-15T09:11:29;83.80;;;51.70;;
68577;SDS011;61668;45.388;11.784;2023-02-15T09:14:04;79.90;;;49.70;;
68577;SDS011;61668;45.388;11.784;2023-02-15T09:16:33;77.30;;;50.90;;
68577;SDS011;61668;45.388;11.784;2023-02-15T09:19:01;79.60;;;51.20;;
68577;SDS011;61668;45.388;11.784;2023-02-15T09:21:30;80.90;;;52.50;;
68577;SDS011;61668;45.388;11.784;2023-02-15T09:24:00;82.90;;;52.40;;
68577;SDS011;61668;45.388;11.784;2023-02-15T09:26:29;79.90;;;51.40;;
68577;SDS011;61668;45.388;11.784;2023-02-15T09:28:59;83.40;;;52.90;;
68577;SDS011;61668;45.388;11.784;2023-02-15T09:31:46;79.30;;;51.00;;
68577;SDS011;61668;45.388;11.784;2023-02-15T09:34:15;76.90;;;49.60;;
68577;SDS011;61668;45.388;11.784;2023-02-15T09:36:43;73.20;;;49.80;;
68577;SDS011;61668;45.388;11.784;2023-02-15T09:56:19;81.30;;;52.60;;
68577;SDS011;61668;45.388;11.784;2023-02-15T09:59:25;74.20;;;49.40;;
68577;SDS011;61668;45.388;11.784;2023-02-15T10:05:27;68.90;;;43.10;;
68577;SDS011;61668;45.388;11.784;2023-02-15T10:08:51;69.40;;;43.10;;
68577;SDS011;61668;45.388;11.784;2023-02-15T10:14:45;67.50;;;44.10;;
68577;SDS011;61668;45.388;11.784;2023-02-15T10:20:19;61.60;;;38.80;;
68577;SDS011;61668;45.388;11.784;2023-02-15T10:31:22;58.10;;;34.00;;
68577;SDS011;61668;45.388;11.784;2023-02-15T10:34:30;60.50;;;34.70;;
68577;SDS011;61668;45.388;11.784;2023-02-15T10:37:37;56.90;;;35.70;;
68577;SDS011;61668;45.388;11.784;2023-02-15T10:41:20;63.60;;;36.30;;
68577;SDS011;61668;45.388;11.784;2023-02-15T10:47:10;60.10;;;34.00;;
68577;SDS011;61668;45.388;11.784;2023-02-15T10:58:38;63.90;;;34.80;;
68577;SDS011;61668;45.388;11.784;2023-02-15T11:01:48;67.00;;;34.70;;
68577;SDS011;61668;45.388;11.784;2023-02-15T11:07:16;70.70;;;38.10;;
68577;SDS011;61668;45.388;11.784;2023-02-15T11:10:01;62.30;;;35.70;;
68577;SDS011;61668;45.388;11.784;2023-02-15T11:12:36;66.00;;;35.20;;
68577;SDS011;61668;45.388;11.784;2023-02-15T11:15:15;64.10;;;33.70;;
68577;SDS011;61668;45.388;11.784;2023-02-15T11:17:52;66.00;;;36.60;;
68577;SDS011;61668;45.388;11.784;2023-02-15T11:20:29;74.10;;;42.10;;
68577;SDS011;61668;45.388;11.784;2023-02-15T11:23:01;71.30;;;40.80;;
68577;SDS011;61668;45.388;11.784;2023-02-15T11:25:32;68.70;;;37.30;;
68577;SDS011;61668;45.388;11.784;2023-02-15T11:28:04;59.90;;;32.00;;
68577;SDS011;61668;45.388;11.784;2023-02-15T11:30:43;59.60;;;32.80;;
68577;SDS011;61668;45.388;11.784;2023-02-15T11:33:40;60.40;;;32.00;;
68577;SDS011;61668;45.388;11.784;2023-02-15T11:36:21;60.40;;;31.50;;
68577;SDS011;61668;45.388;11.784;2023-02-15T11:38:56;60.90;;;32.70;;
68577;SDS011;61668;45.388;11.784;2023-02-15T11:41:31;56.70;;;30.90;;
68577;SDS011;61668;45.388;11.784;2023-02-15T11:44:14;56.30;;;29.50;;
68577;SDS011;61668;45.388;11.784;2023-02-15T11:46:42;66.50;;;32.70;;
68577;SDS011;61668;45.388;11.784;2023-02-15T11:52:02;63.60;;;32.40;;
68577;SDS011;61668;45.388;11.784;2023-02-15T11:54:34;60.10;;;33.50;;
68577;SDS011;61668;45.388;11.784;2023-02-15T11:57:11;71.40;;;38.40;;
68577;SDS011;61668;45.388;11.784;2023-02-15T11:59:46;61.80;;;32.20;;
68577;SDS011;61668;45.388;11.784;2023-02-15T12:02:18;60.60;;;30.60;;
68577;SDS011;61668;45.388;11.784;2023-02-15T12:04:55;61.20;;;31.80;;
68577;SDS011;61668;45.388;11.784;2023-02-15T12:07:30;62.60;;;31.70;;
68577;SDS011;61668;45.388;11.784;2023-02-15T12:13:10;53.70;;;26.90;;
68577;SDS011;61668;45.388;11.784;2023-02-15T12:15:44;51.00;;;24.90;;
68577;SDS011;61668;45.388;11.784;2023-02-15T12:21:03;50.90;;;27.00;;
68577;SDS011;61668;45.388;11.784;2023-02-15T12:23:34;54.60;;;26.90;;
68577;SDS011;61668;45.388;11.784;2023-02-15T12:26:00;50.80;;;25.20;;
68577;SDS011;61668;45.388;11.784;2023-02-15T12:28:32;55.10;;;26.60;;
68577;SDS011;61668;45.388;11.784;2023-02-15T12:31:02;176.30;;;82.60;;
68577;SDS011;61668;45.388;11.784;2023-02-15T12:33:35;81.00;;;36.80;;
68577;SDS011;61668;45.388;11.784;2023-02-15T12:41:37;54.50;;;26.10;;
68577;SDS011;61668;45.388;11.784;2023-02-15T12:44:22;52.00;;;26.80;;
68577;SDS011;61668;45.388;11.784;2023-02-15T12:49:32;66.40;;;36.50;;
68577;SDS011;61668;45.388;11.784;2023-02-15T12:54:47;42.50;;;20.50;;
68577;SDS011;61668;45.388;11.784;2023-02-15T12:59:49;46.90;;;22.70;;
68577;SDS011;61668;45.388;11.784;2023-02-15T13:02:25;43.10;;;17.80;;
68577;SDS011;61668;45.388;11.784;2023-02-15T13:04:52;39.20;;;18.90;;
68577;SDS011;61668;45.388;11.784;2023-02-15T13:07:19;43.50;;;19.90;;
68577;SDS011;61668;45.388;11.784;2023-02-15T13:09:46;49.50;;;24.70;;
68577;SDS011;61668;45.388;11.784;2023-02-15T13:12:20;41.40;;;18.10;;
68577;SDS011;61668;45.388;11.784;2023-02-15T13:14:49;44.00;;;19.70;;
68577;SDS011;61668;45.388;11.784;2023-02-15T13:17:20;41.90;;;17.60;;
68577;SDS011;61668;45.388;11.784;2023-02-15T13:19:53;43.20;;;21.00;;
68577;SDS011;61668;45.388;11.784;2023-02-15T13:22:25;49.10;;;24.00;;
68577;SDS011;61668;45.388;11.784;2023-02-15T13:25:19;48.50;;;23.20;;
68577;SDS011;61668;45.388;11.784;2023-02-15T13:27:52;52.80;;;28.30;;
68577;SDS011;61668;45.388;11.784;2023-02-15T13:30:35;51.60;;;25.20;;
68577;SDS011;61668;45.388;11.784;2023-02-15T13:33:06;51.90;;;26.10;;
68577;SDS011;61668;45.388;11.784;2023-02-15T13:35:47;52.50;;;25.00;;
68577;SDS011;61668;45.388;11.784;2023-02-15T13:38:46;50.60;;;26.90;;
68577;SDS011;61668;45.388;11.784;2023-02-15T13:47:09;54.60;;;26.40;;
68577;SDS011;61668;45.388;11.784;2023-02-15T13:53:19;53.40;;;28.70;;
68577;SDS011;61668;45.388;11.784;2023-02-15T13:56:02;52.20;;;27.10;;
68577;SDS011;61668;45.388;11.784;2023-02-15T14:01:58;56.30;;;28.20;;
68577;SDS011;61668;45.388;11.784;2023-02-15T14:21:10;61.00;;;32.70;;
68577;SDS011;61668;45.388;11.784;2023-02-15T14:23:44;62.50;;;33.70;;
68577;SDS011;61668;45.388;11.784;2023-02-15T14:27:20;61.40;;;34.70;;
68577;SDS011;61668;45.388;11.784;2023-02-15T14:29:58;71.10;;;36.10;;
68577;SDS011;61668;45.388;11.784;2023-02-15T14:32:30;75.20;;;35.00;;
68577;SDS011;61668;45.388;11.784;2023-02-15T14:35:05;72.20;;;36.80;;
68577;SDS011;61668;45.388;11.784;2023-02-15T14:49:15;79.30;;;39.90;;
68577;SDS011;61668;45.388;11.784;2023-02-15T14:56:42;73.20;;;40.30;;
68577;SDS011;61668;45.388;11.784;2023-02-15T14:59:17;81.00;;;42.50;;
68577;SDS011;61668;45.388;11.784;2023-02-15T15:02:03;79.30;;;40.30;;
68577;SDS011;61668;45.388;11.784;2023-02-15T15:04:38;80.40;;;40.30;;
68577;SDS011;61668;45.388;11.784;2023-02-15T15:09:58;75.20;;;37.80;;
68577;SDS011;61668;45.388;11.784;2023-02-15T15:18:49;72.70;;;36.40;;
68577;SDS011;61668;45.388;11.784;2023-02-15T15:50:15;72.40;;;36.00;;
68577;SDS011;61668;45.388;11.784;2023-02-15T15:52:48;75.30;;;39.10;;
68577;SDS011;61668;45.388;11.784;2023-02-15T15:55:22;76.50;;;36.80;;
68577;SDS011;61668;45.388;11.784;2023-02-15T15:57:54;70.20;;;36.80;;
68577;SDS011;61668;45.388;11.784;2023-02-15T16:00:39;73.30;;;37.60;;
68577;SDS011;61668;45.388;11.784;2023-02-15T16:03:27;70.60;;;38.00;;
68577;SDS011;61668;45.388;11.784;2023-02-15T16:05:55;68.60;;;38.20;;
68577;SDS011;61668;45.388;11.784;2023-02-15T16:11:19;90.10;;;43.70;;
68577;SDS011;61668;45.388;11.784;2023-02-15T16:13:50;85.80;;;40.40;;
68577;SDS011;61668;45.388;11.784;2023-02-15T16:16:25;84.60;;;42.30;;
68577;SDS011;61668;45.388;11.784;2023-02-15T16:18:55;76.60;;;40.70;;
68577;SDS011;61668;45.388;11.784;2023-02-15T16:21:35;88.40;;;43.60;;
68577;SDS011;61668;45.388;11.784;2023-02-15T16:24:22;75.20;;;40.10;;
68577;SDS011;61668;45.388;11.784;2023-02-15T16:30:23;73.70;;;37.70;;
68577;SDS011;61668;45.388;11.784;2023-02-15T16:33:12;75.20;;;37.90;;
68577;SDS011;61668;45.388;11.784;2023-02-15T16:35:57;71.30;;;37.80;;
68577;SDS011;61668;45.388;11.784;2023-02-15T16:41:16;72.40;;;36.00;;
68577;SDS011;61668;45.388;11.784;2023-02-15T16:43:47;75.20;;;38.40;;
68577;SDS011;61668;45.388;11.784;2023-02-15T16:46:22;73.90;;;38.20;;
68577;SDS011;61668;45.388;11.784;2023-02-15T16:48:55;74.30;;;35.80;;
68577;SDS011;61668;45.388;11.784;2023-02-15T16:51:25;68.20;;;34.40;;
68577;SDS011;61668;45.388;11.784;2023-02-15T16:53:54;74.50;;;38.40;;
68577;SDS011;61668;45.388;11.784;2023-02-15T16:56:27;71.30;;;36.00;;
68577;SDS011;61668;45.388;11.784;2023-02-15T16:58:58;75.80;;;38.20;;
68577;SDS011;61668;45.388;11.784;2023-02-15T17:01:30;75.70;;;39.20;;
68577;SDS011;61668;45.388;11.784;2023-02-15T17:04:24;73.70;;;37.30;;
68577;SDS011;61668;45.388;11.784;2023-02-15T17:09:52;77.80;;;38.20;;
68577;SDS011;61668;45.388;11.784;2023-02-15T17:12:45;86.30;;;41.70;;
68577;SDS011;61668;45.388;11.784;2023-02-15T17:15:29;84.50;;;40.10;;
68577;SDS011;61668;45.388;11.784;2023-02-15T17:18:20;85.10;;;39.90;;
68577;SDS011;61668;45.388;11.784;2023-02-15T17:20:50;83.60;;;42.30;;
68577;SDS011;61668;45.388;11.784;2023-02-15T17:25:52;87.80;;;42.10;;
68577;SDS011;61668;45.388;11.784;2023-02-15T17:28:21;96.60;;;44.50;;
68577;SDS011;61668;45.388;11.784;2023-02-15T17:30:50;80.70;;;42.40;;
68577;SDS011;61668;45.388;11.784;2023-02-15T17:33:37;87.20;;;42.00;;
68577;SDS011;61668;45.388;11.784;2023-02-15T17:39:02;88.50;;;43.60;;
68577;SDS011;61668;45.388;11.784;2023-02-15T17:41:35;92.30;;;41.80;;
68577;SDS011;61668;45.388;11.784;2023-02-15T17:44:03;83.70;;;40.60;;
68577;SDS011;61668;45.388;11.784;2023-02-15T17:46:33;85.30;;;42.60;;
68577;SDS011;61668;45.388;11.784;2023-02-15T17:49:01;86.30;;;43.60;;
68577;SDS011;61668;45.388;11.784;2023-02-15T17:51:27;85.70;;;41.40;;
68577;SDS011;61668;45.388;11.784;2023-02-15T17:53:53;83.60;;;42.90;;
68577;SDS011;61668;45.388;11.784;2023-02-15T17:56:38;89.50;;;42.60;;
68577;SDS011;61668;45.388;11.784;2023-02-15T17:59:04;87.60;;;41.80;;
68577;SDS011;61668;45.388;11.784;2023-02-15T18:01:42;88.90;;;42.10;;
68577;SDS011;61668;45.388;11.784;2023-02-15T18:04:31;88.80;;;40.50;;
68577;SDS011;61668;45.388;11.784;2023-02-15T18:07:18;86.00;;;44.20;;
68577;SDS011;61668;45.388;11.784;2023-02-15T18:10:12;86.40;;;40.40;;
68577;SDS011;61668;45.388;11.784;2023-02-15T18:13:01;83.70;;;41.30;;
68577;SDS011;61668;45.388;11.784;2023-02-15T18:15:27;89.60;;;42.00;;
68577;SDS011;61668;45.388;11.784;2023-02-15T18:17:53;88.20;;;42.90;;